Eships Agamid — ZDHS9 — position and weather

sailwx.info

Track history (hours):
 
Tides and Currents Weather Stations Pressure Air Temp Water Temp Dewpoint Dewpoint Depression Visibility Wind Speed Wind Dir Waves Ship Positions

Eships Agamid

Last reported at 2014-Oct-30 22:32 UTC. Time now 2014-Oct-30 22:57 UTC.
Position N 47°08' W 002°24'.

Length 128 m; draft 6 m.

Type: Tanker. MMSI: 236355000.

Date/timePositionNaut miles runAvg speedWind from/ knotsBaromVisibWave heightAir tempDewpointWater temp
2014-Oct-30 22:32N 47°08' W 002°24'0 0.0
2014-Oct-30 21:32N 47°08' W 002°24'0 0.0
2014-Oct-30 20:32N 47°08' W 002°24'0 0.0
2014-Oct-30 19:32N 47°08' W 002°24'0 0.0
2014-Oct-30 16:29N 47°08' W 002°24'0 0.0
2014-Oct-30 11:29N 47°08' W 002°24'0 0.0
2014-Oct-30 09:17N 47°08' W 002°24'0 0.0
2014-Oct-30 08:23N 47°08' W 002°24'0 0.0
2014-Oct-30 07:32N 47°08' W 002°24'0 0.0
2014-Oct-30 06:23N 47°08' W 002°24'0 0.0
2014-Oct-30 05:23N 47°08' W 002°24'0 0.0
2014-Oct-30 04:29N 47°08' W 002°24'0 0.0
2014-Oct-30 03:32N 47°08' W 002°24'0 0.1
2014-Oct-30 02:11N 47°08' W 002°24'0 0.0
2014-Oct-29 20:05N 47°08' W 002°24'0 0.1
2014-Oct-29 19:32N 47°08' W 002°24'0 0.0
2014-Oct-29 17:32N 47°08' W 002°24'0 0.0
2014-Oct-29 14:32N 47°08' W 002°24'0 0.1
2014-Oct-29 13:20N 47°08' W 002°24'0 0.0
2014-Oct-29 12:05N 47°08' W 002°24'0 0.0
2014-Oct-29 11:05N 47°08' W 002°24'0 0.0
2014-Oct-29 10:32N 47°08' W 002°24'0 0.0
2014-Oct-29 09:26N 47°08' W 002°24'0 0.0
2014-Oct-29 08:29N 47°08' W 002°24'0 0.0
2014-Oct-29 07:23N 47°08' W 002°24'0 0.0
2014-Oct-29 06:29N 47°08' W 002°24'0 0.1
2014-Oct-29 05:26N 47°08' W 002°24'0 0.0
2014-Oct-29 04:32N 47°08' W 002°24'0 0.0
2014-Oct-29 03:29N 47°08' W 002°24'0 0.1
2014-Oct-29 02:32N 47°08' W 002°24'0 0.1
2014-Oct-29 01:32N 47°08' W 002°24'0 0.0
2014-Oct-29 00:32N 47°08' W 002°24'6 5.8
2014-Oct-28 23:33N 47°04' W 002°30'1313.3
2014-Oct-28 22:33N 46°59' W 002°48'2013.3
2014-Oct-28 21:04N 47°08' W 003°15'713.7
2014-Oct-28 20:33N 47°12' W 003°23'1513.7
2014-Oct-28 19:28N 47°25' W 003°35'1611.0
2014-Oct-28 18:03N 47°40' W 003°36'713.3
2014-Oct-28 17:33N 47°41' W 003°27'5 4.7
2014-Oct-28 16:31N 47°44' W 003°21'0 0.0
2014-Oct-28 15:31N 47°44' W 003°21'0 0.0
2014-Oct-28 14:31N 47°44' W 003°21'0 0.0
2014-Oct-28 13:31N 47°44' W 003°21'0 0.0
2014-Oct-28 12:33N 47°44' W 003°21'0 0.0
2014-Oct-28 11:33N 47°44' W 003°21'0 0.0
2014-Oct-28 10:33N 47°44' W 003°21'0 0.0
2014-Oct-28 09:33N 47°44' W 003°21'0 0.0
2014-Oct-28 08:33N 47°44' W 003°21'0 0.0
2014-Oct-28 07:33N 47°44' W 003°21'0 0.0
2014-Oct-28 06:33N 47°44' W 003°21'0 0.0
2014-Oct-28 05:33N 47°44' W 003°21'0 0.0
2014-Oct-28 04:33N 47°44' W 003°21'0 0.0
2014-Oct-28 03:34N 47°44' W 003°21'0 0.0
2014-Oct-28 02:33N 47°44' W 003°21'0 0.0
2014-Oct-28 01:33N 47°44' W 003°21'0 0.0
2014-Oct-28 00:33N 47°44' W 003°21'0 0.0
2014-Oct-27 23:33N 47°44' W 003°21'0 0.0
2014-Oct-27 22:33N 47°44' W 003°21'0 0.0
2014-Oct-27 21:33N 47°44' W 003°21'0 0.0
2014-Oct-27 20:33N 47°44' W 003°21'0 0.0
2014-Oct-27 19:33N 47°44' W 003°21'0 0.0
2014-Oct-27 18:33N 47°44' W 003°21'0 0.0
2014-Oct-27 17:33N 47°44' W 003°21'3 3.1
2014-Oct-27 16:33N 47°41' W 003°24'7 7.5
2014-Oct-27 15:33N 47°40' W 003°35'8 7.1
2014-Oct-27 14:24N 47°34' W 003°42'1111.0
2014-Oct-27 13:22N 47°24' W 003°34'1210.8
2014-Oct-27 12:16N 47°13' W 003°26'810.7
2014-Oct-27 11:30N 47°08' W 003°16'1110.7
2014-Oct-27 10:27N 47°02' W 003°02'910.4
2014-Oct-27 09:33N 47°00' W 002°49'1110.6
2014-Oct-27 08:33N 47°02' W 002°34'1110.8
2014-Oct-27 07:33N 47°08' W 002°21'1312.8
2014-Oct-27 06:33N 47°18' W 002°08'3 2.6
2014-Oct-27 05:31N 47°18' W 002°04'0 0.0
2014-Oct-27 04:22N 47°18' W 002°04'0 0.0
2014-Oct-27 02:30N 47°18' W 002°04'0 0.0
2014-Oct-27 01:34N 47°18' W 002°04'0 0.0
2014-Oct-27 00:33N 47°18' W 002°04'0 0.0
2014-Oct-26 23:33N 47°18' W 002°04'0 0.0
2014-Oct-26 22:31N 47°18' W 002°04'0 0.0
2014-Oct-26 21:16N 47°18' W 002°04'0 0.0
2014-Oct-26 19:13N 47°18' W 002°04'0 0.0
2014-Oct-26 09:32N 47°18' W 002°04'0 0.0
2014-Oct-26 08:33N 47°18' W 002°04'0 0.0
2014-Oct-26 05:32N 47°18' W 002°04'18 0.5
2014-Oct-24 13:33N 47°07' W 002°26'0 0.0
2014-Oct-24 12:27N 47°07' W 002°26'0 0.0
2014-Oct-24 11:08N 47°07' W 002°26'0 0.0
2014-Oct-24 10:33N 47°07' W 002°26'0 0.0
2014-Oct-24 09:33N 47°07' W 002°26'36 5.8
2014-Oct-24 03:19N 46°31' W 002°28'911.0
2014-Oct-24 02:32N 46°24' W 002°21'1111.0
2014-Oct-24 01:33N 46°15' W 002°12'6811.3
2014-Oct-23 19:30N 45°30' W 000°58'68 1.5
2014-Oct-21 21:33N 46°16' W 002°10'1212.3
2014-Oct-21 20:33N 46°25' W 002°22'  
Track history (hours):
 
Tides and Currents Weather Stations Pressure Air Temp Water Temp Dewpoint Dewpoint Depression Visibility Wind Speed Wind Dir Waves Ship Positions

Eships Agamid

Last reported at 2014-Oct-30 22:32 UTC. Time now 2014-Oct-30 22:57 UTC.
Position N 47°08' W 002°24'.

Length 128 m; draft 6 m.

Type: Tanker. MMSI: 236355000.

Date/timePositionNaut miles runAvg speedWind from/ knotsBaromVisibWave heightAir tempDewpointWater temp
2014-Oct-30 22:32N 47°08' W 002°24'0 0.0
2014-Oct-30 21:32N 47°08' W 002°24'0 0.0
2014-Oct-30 20:32N 47°08' W 002°24'0 0.0
2014-Oct-30 19:32N 47°08' W 002°24'0 0.0
2014-Oct-30 16:29N 47°08' W 002°24'0 0.0
2014-Oct-30 11:29N 47°08' W 002°24'0 0.0
2014-Oct-30 09:17N 47°08' W 002°24'0 0.0
2014-Oct-30 08:23N 47°08' W 002°24'0 0.0
2014-Oct-30 07:32N 47°08' W 002°24'0 0.0
2014-Oct-30 06:23N 47°08' W 002°24'0 0.0
2014-Oct-30 05:23N 47°08' W 002°24'0 0.0
2014-Oct-30 04:29N 47°08' W 002°24'0 0.0
2014-Oct-30 03:32N 47°08' W 002°24'0 0.1
2014-Oct-30 02:11N 47°08' W 002°24'0 0.0
2014-Oct-29 20:05N 47°08' W 002°24'0 0.1
2014-Oct-29 19:32N 47°08' W 002°24'0 0.0
2014-Oct-29 17:32N 47°08' W 002°24'0 0.0
2014-Oct-29 14:32N 47°08' W 002°24'0 0.1
2014-Oct-29 13:20N 47°08' W 002°24'0 0.0
2014-Oct-29 12:05N 47°08' W 002°24'0 0.0
2014-Oct-29 11:05N 47°08' W 002°24'0 0.0
2014-Oct-29 10:32N 47°08' W 002°24'0 0.0
2014-Oct-29 09:26N 47°08' W 002°24'0 0.0
2014-Oct-29 08:29N 47°08' W 002°24'0 0.0
2014-Oct-29 07:23N 47°08' W 002°24'0 0.0
2014-Oct-29 06:29N 47°08' W 002°24'0 0.1
2014-Oct-29 05:26N 47°08' W 002°24'0 0.0
2014-Oct-29 04:32N 47°08' W 002°24'0 0.0
2014-Oct-29 03:29N 47°08' W 002°24'0 0.1
2014-Oct-29 02:32N 47°08' W 002°24'0 0.1
2014-Oct-29 01:32N 47°08' W 002°24'0 0.0
2014-Oct-29 00:32N 47°08' W 002°24'6 5.8
2014-Oct-28 23:33N 47°04' W 002°30'1313.3
2014-Oct-28 22:33N 46°59' W 002°48'2013.3
2014-Oct-28 21:04N 47°08' W 003°15'713.7
2014-Oct-28 20:33N 47°12' W 003°23'1513.7
2014-Oct-28 19:28N 47°25' W 003°35'1611.0
2014-Oct-28 18:03N 47°40' W 003°36'713.3
2014-Oct-28 17:33N 47°41' W 003°27'5 4.7
2014-Oct-28 16:31N 47°44' W 003°21'0 0.0
2014-Oct-28 15:31N 47°44' W 003°21'0 0.0
2014-Oct-28 14:31N 47°44' W 003°21'0 0.0
2014-Oct-28 13:31N 47°44' W 003°21'0 0.0
2014-Oct-28 12:33N 47°44' W 003°21'0 0.0
2014-Oct-28 11:33N 47°44' W 003°21'0 0.0
2014-Oct-28 10:33N 47°44' W 003°21'0 0.0
2014-Oct-28 09:33N 47°44' W 003°21'0 0.0
2014-Oct-28 08:33N 47°44' W 003°21'0 0.0
2014-Oct-28 07:33N 47°44' W 003°21'0 0.0
2014-Oct-28 06:33N 47°44' W 003°21'0 0.0
2014-Oct-28 05:33N 47°44' W 003°21'0 0.0
2014-Oct-28 04:33N 47°44' W 003°21'0 0.0
2014-Oct-28 03:34N 47°44' W 003°21'0 0.0
2014-Oct-28 02:33N 47°44' W 003°21'0 0.0
2014-Oct-28 01:33N 47°44' W 003°21'0 0.0
2014-Oct-28 00:33N 47°44' W 003°21'0 0.0
2014-Oct-27 23:33N 47°44' W 003°21'0 0.0
2014-Oct-27 22:33N 47°44' W 003°21'0 0.0
2014-Oct-27 21:33N 47°44' W 003°21'0 0.0
2014-Oct-27 20:33N 47°44' W 003°21'0 0.0
2014-Oct-27 19:33N 47°44' W 003°21'0 0.0
2014-Oct-27 18:33N 47°44' W 003°21'0 0.0
2014-Oct-27 17:33N 47°44' W 003°21'3 3.1
2014-Oct-27 16:33N 47°41' W 003°24'7 7.5
2014-Oct-27 15:33N 47°40' W 003°35'8 7.1
2014-Oct-27 14:24N 47°34' W 003°42'1111.0
2014-Oct-27 13:22N 47°24' W 003°34'1210.8
2014-Oct-27 12:16N 47°13' W 003°26'810.7
2014-Oct-27 11:30N 47°08' W 003°16'1110.7
2014-Oct-27 10:27N 47°02' W 003°02'910.4
2014-Oct-27 09:33N 47°00' W 002°49'1110.6
2014-Oct-27 08:33N 47°02' W 002°34'1110.8
2014-Oct-27 07:33N 47°08' W 002°21'1312.8
2014-Oct-27 06:33N 47°18' W 002°08'3 2.6
2014-Oct-27 05:31N 47°18' W 002°04'0 0.0
2014-Oct-27 04:22N 47°18' W 002°04'0 0.0
2014-Oct-27 02:30N 47°18' W 002°04'0 0.0
2014-Oct-27 01:34N 47°18' W 002°04'0 0.0
2014-Oct-27 00:33N 47°18' W 002°04'0 0.0
2014-Oct-26 23:33N 47°18' W 002°04'0 0.0
2014-Oct-26 22:31N 47°18' W 002°04'0 0.0
2014-Oct-26 21:16N 47°18' W 002°04'0 0.0
2014-Oct-26 19:13N 47°18' W 002°04'0 0.0
2014-Oct-26 09:32N 47°18' W 002°04'0 0.0
2014-Oct-26 08:33N 47°18' W 002°04'0 0.0
2014-Oct-26 05:32N 47°18' W 002°04'18 0.5
2014-Oct-24 13:33N 47°07' W 002°26'0 0.0
2014-Oct-24 12:27N 47°07' W 002°26'0 0.0
2014-Oct-24 11:08N 47°07' W 002°26'0 0.0
2014-Oct-24 10:33N 47°07' W 002°26'0 0.0
2014-Oct-24 09:33N 47°07' W 002°26'36 5.8
2014-Oct-24 03:19N 46°31' W 002°28'911.0
2014-Oct-24 02:32N 46°24' W 002°21'1111.0
2014-Oct-24 01:33N 46°15' W 002°12'6811.3
2014-Oct-23 19:30N 45°30' W 000°58'68 1.5
2014-Oct-21 21:33N 46°16' W 002°10'1212.3
2014-Oct-21 20:33N 46°25' W 002°22'  

Dump ship's entire track history